createdAt,value
2022-11-20T00:00:21.760Z,98141.85
2022-11-20T00:03:09.109Z,98136.27
2022-11-20T00:05:36.604Z,98138.86
2022-11-20T00:08:04.005Z,98137.91
2022-11-20T00:10:31.371Z,98134.05
2022-11-20T00:12:58.743Z,98130.58
2022-11-20T00:15:26.128Z,98128.97
2022-11-20T00:17:53.475Z,98129.64
2022-11-20T00:20:21.009Z,98126.47
2022-11-20T00:22:48.543Z,98122.79
2022-11-20T00:25:15.971Z,98119.88
2022-11-20T00:27:43.364Z,98116.55
2022-11-20T00:30:14.658Z,98114.70
2022-11-20T00:32:42.331Z,98115.48
2022-11-20T00:35:09.853Z,98114.62
2022-11-20T00:37:37.242Z,98114.10
2022-11-20T00:40:04.832Z,98117.83
2022-11-20T00:42:34.665Z,98120.85
2022-11-20T00:45:02.098Z,98121.77
2022-11-20T00:47:29.599Z,98117.67
2022-11-20T00:49:57.045Z,98112.73
2022-11-20T00:52:24.539Z,98117.61
2022-11-20T00:54:51.970Z,98118.17
2022-11-20T00:57:19.655Z,98114.98
2022-11-20T00:59:47.106Z,98115.72
2022-11-20T01:02:14.512Z,98112.11
2022-11-20T01:04:41.886Z,98112.70
2022-11-20T01:07:09.335Z,98111.23
2022-11-20T01:09:36.746Z,98110.63
2022-11-20T01:12:04.256Z,98104.23
2022-11-20T01:14:31.604Z,98099.30
2022-11-20T01:16:59.024Z,98095.23
2022-11-20T01:19:26.398Z,98095.62
2022-11-20T01:21:53.777Z,98094.42
2022-11-20T01:24:21.149Z,98090.13
2022-11-20T01:26:48.502Z,98086.81
2022-11-20T01:29:15.854Z,98084.61
2022-11-20T01:31:43.218Z,98081.59
2022-11-20T01:34:10.591Z,98079.31
2022-11-20T01:36:38.123Z,98076.04
2022-11-20T01:39:05.493Z,98072.70
2022-11-20T01:41:32.871Z,98072.83
2022-11-20T01:44:00.249Z,98071.25
2022-11-20T01:46:27.591Z,98067.48
2022-11-20T01:48:54.985Z,98064.86
2022-11-20T01:51:22.402Z,98067.88
2022-11-20T01:53:50.108Z,98068.41
2022-11-20T01:56:17.480Z,98063.82
2022-11-20T01:58:44.857Z,98063.58
2022-11-20T02:01:12.456Z,98065.82
2022-11-20T02:03:39.946Z,98063.91
2022-11-20T02:06:07.422Z,98061.68
2022-11-20T02:08:34.775Z,98062.91
2022-11-20T02:11:02.190Z,98064.63
2022-11-20T02:13:29.577Z,98068.12
2022-11-20T02:15:57.006Z,98076.29
2022-11-20T02:18:24.501Z,98080.02
2022-11-20T02:20:51.864Z,98083.02
2022-11-20T02:23:19.234Z,98080.77
2022-11-20T02:25:46.576Z,98085.09
2022-11-20T02:28:13.974Z,98088.16
2022-11-20T02:30:41.313Z,98095.20
2022-11-20T02:33:08.774Z,98087.58
2022-11-20T02:35:36.121Z,98095.14
2022-11-20T02:38:03.514Z,98093.81
2022-11-20T02:40:31.070Z,98097.45
2022-11-20T02:42:58.451Z,98099.48
2022-11-20T02:45:25.831Z,98099.88
2022-11-20T02:47:53.273Z,98101.23
2022-11-20T02:50:20.671Z,98098.02
2022-11-20T02:52:48.056Z,98101.70
2022-11-20T02:55:15.485Z,98097.05
2022-11-20T02:57:42.878Z,98092.66
2022-11-20T03:00:10.239Z,98092.59
2022-11-20T03:02:37.657Z,98086.00
2022-11-20T03:05:05.011Z,98086.56
2022-11-20T03:07:32.461Z,98082.32
2022-11-20T03:09:59.888Z,98081.72
2022-11-20T03:12:27.226Z,98084.91
2022-11-20T03:14:54.568Z,98089.13
2022-11-20T03:17:22.013Z,98087.86
2022-11-20T03:19:49.366Z,98084.42
2022-11-20T03:22:16.753Z,98081.62
2022-11-20T03:24:44.134Z,98081.95
2022-11-20T03:27:11.517Z,98079.48
2022-11-20T03:29:38.976Z,98084.35
2022-11-20T03:32:06.432Z,98085.30
2022-11-20T03:34:33.867Z,98087.78
2022-11-20T03:37:01.220Z,98089.02
2022-11-20T03:39:28.618Z,98089.66
2022-11-20T03:41:56.102Z,98090.23
2022-11-20T03:44:23.485Z,98089.45
2022-11-20T03:46:50.867Z,98090.73
2022-11-20T03:49:18.604Z,98086.57
2022-11-20T03:51:46.193Z,98084.13
2022-11-20T03:54:13.599Z,98085.09
2022-11-20T03:56:40.959Z,98084.23
2022-11-20T03:59:08.305Z,98087.22
2022-11-20T04:01:35.754Z,98087.79
2022-11-20T04:04:03.210Z,98084.92
2022-11-20T04:06:30.597Z,98084.02
2022-11-20T04:08:57.978Z,98077.23
2022-11-20T04:11:25.486Z,98079.04
2022-11-20T04:13:52.981Z,98074.08
2022-11-20T04:16:20.307Z,98068.71
2022-11-20T04:18:47.682Z,98064.48
2022-11-20T04:21:15.026Z,98063.42
2022-11-20T04:23:42.425Z,98060.05
2022-11-20T04:26:09.762Z,98066.58
2022-11-20T04:28:37.198Z,98061.56
2022-11-20T04:31:04.602Z,98056.30
2022-11-20T04:33:34.293Z,98050.14
2022-11-20T04:36:01.896Z,98047.46
2022-11-20T04:38:29.243Z,98044.15
2022-11-20T04:40:56.672Z,98043.89
2022-11-20T04:43:24.063Z,98044.54
2022-11-20T04:45:51.621Z,98041.51
2022-11-20T04:48:19.097Z,98045.86
2022-11-20T04:50:46.556Z,98043.79
2022-11-20T04:53:13.897Z,98042.41
2022-11-20T04:55:41.269Z,98038.38
2022-11-20T04:58:08.674Z,98034.17
2022-11-20T05:00:36.064Z,98034.36
2022-11-20T05:03:03.409Z,98029.44
2022-11-20T05:05:30.833Z,98026.61
2022-11-20T05:07:58.197Z,98024.72
2022-11-20T05:10:25.582Z,98027.08
2022-11-20T05:12:53.001Z,98023.80
2022-11-20T05:15:20.473Z,98022.86
2022-11-20T05:17:47.919Z,98023.24
2022-11-20T05:20:15.279Z,98017.44
2022-11-20T05:22:42.645Z,98010.65
2022-11-20T05:25:09.989Z,98011.77
2022-11-20T05:27:37.357Z,98009.36
2022-11-20T05:30:04.724Z,98007.41
2022-11-20T05:32:32.154Z,98004.38
2022-11-20T05:34:59.555Z,98001.88
2022-11-20T05:37:27.063Z,98004.00
2022-11-20T05:39:54.470Z,98007.85
2022-11-20T05:42:21.871Z,98008.52
2022-11-20T05:44:49.224Z,98008.73
2022-11-20T05:47:16.607Z,98006.32
2022-11-20T05:49:43.980Z,98004.28
2022-11-20T05:52:11.416Z,98001.71
2022-11-20T05:54:39.007Z,98001.52
2022-11-20T05:57:06.482Z,98000.48
2022-11-20T05:59:33.941Z,98000.36
2022-11-20T06:02:01.355Z,98007.77
2022-11-20T06:04:28.900Z,98011.06
2022-11-20T06:06:56.362Z,98008.03
2022-11-20T06:09:23.938Z,98012.52
2022-11-20T06:11:51.503Z,98011.14
2022-11-20T06:14:18.977Z,98010.57
2022-11-20T06:16:46.414Z,98012.95
2022-11-20T06:19:13.830Z,98015.21
2022-11-20T06:21:41.433Z,98017.24
2022-11-20T06:24:08.835Z,98014.27
2022-11-20T06:26:36.274Z,98017.24
2022-11-20T06:29:03.699Z,98014.99
2022-11-20T06:31:31.129Z,98018.17
2022-11-20T06:33:58.481Z,98017.61
2022-11-20T06:36:25.840Z,98018.95
2022-11-20T06:38:53.247Z,98017.55
2022-11-20T06:41:20.802Z,98017.91
2022-11-20T06:43:48.174Z,98013.91
2022-11-20T06:46:15.577Z,98011.63
2022-11-20T06:48:42.977Z,98005.27
2022-11-20T06:51:10.413Z,98002.38
2022-11-20T06:53:37.806Z,97997.30
2022-11-20T06:56:05.264Z,97998.35
2022-11-20T06:58:32.679Z,97999.80
2022-11-20T07:01:00.229Z,97999.61
2022-11-20T07:03:27.690Z,97995.96
2022-11-20T07:05:55.041Z,97989.67
2022-11-20T07:08:22.489Z,97983.96
2022-11-20T07:10:49.873Z,97979.16
2022-11-20T07:13:17.318Z,97976.36
2022-11-20T07:15:44.701Z,97974.77
2022-11-20T07:18:12.082Z,97974.54
2022-11-20T07:20:39.473Z,97975.49
2022-11-20T07:23:06.841Z,97979.31
2022-11-20T07:25:34.232Z,97981.43
2022-11-20T07:28:01.627Z,97984.31
2022-11-20T07:30:29.113Z,97985.95
2022-11-20T07:32:56.464Z,97995.14
2022-11-20T07:35:23.818Z,97998.44
2022-11-20T07:37:51.199Z,97999.24
2022-11-20T07:40:18.557Z,97995.54
2022-11-20T07:42:46.075Z,97996.14
2022-11-20T07:45:13.480Z,97992.52
2022-11-20T07:47:40.840Z,97997.20
2022-11-20T07:50:08.290Z,98000.33
2022-11-20T07:52:35.652Z,97994.94
2022-11-20T07:55:03.041Z,97989.06
2022-11-20T07:57:30.381Z,97989.75
2022-11-20T07:59:57.829Z,97989.80
2022-11-20T08:02:25.192Z,97995.13
2022-11-20T08:04:52.601Z,97995.20
2022-11-20T08:07:19.970Z,97998.20
2022-11-20T08:09:47.328Z,98001.14
2022-11-20T08:12:14.744Z,98005.39
2022-11-20T08:14:42.160Z,98005.48
2022-11-20T08:17:09.540Z,98006.29
2022-11-20T08:19:36.886Z,98006.42
2022-11-20T08:22:04.296Z,98004.54
2022-11-20T08:24:31.675Z,98005.81
2022-11-20T08:26:59.049Z,98000.67
2022-11-20T08:29:26.486Z,97999.20
2022-11-20T08:31:53.980Z,98002.00
2022-11-20T08:34:38.211Z,98009.83
2022-11-20T08:37:05.601Z,98010.70
2022-11-20T08:39:33.085Z,98014.81
2022-11-20T08:42:00.551Z,98015.95
2022-11-20T08:44:27.965Z,98012.34
2022-11-20T08:46:55.360Z,98011.95
2022-11-20T08:49:22.939Z,98012.02
2022-11-20T08:51:50.476Z,98013.05
2022-11-20T08:54:17.818Z,98012.55
2022-11-20T08:56:45.246Z,98008.59
2022-11-20T08:59:50.804Z,98008.13
2022-11-20T09:02:00.029Z,98007.55
2022-11-20T09:04:27.527Z,98003.14
2022-11-20T09:06:54.961Z,98005.48
2022-11-20T09:09:22.623Z,98004.48
2022-11-20T09:11:50.262Z,98001.31
2022-11-20T09:14:17.752Z,98000.20
2022-11-20T09:16:45.148Z,98003.45
2022-11-20T09:19:34.655Z,98002.46
2022-11-20T09:22:00.211Z,97998.64
2022-11-20T09:24:27.644Z,97998.67
2022-11-20T09:26:55.072Z,97999.10
2022-11-20T09:29:22.917Z,97994.77
2022-11-20T09:31:50.946Z,97994.05
2022-11-20T09:34:18.317Z,97994.12
2022-11-20T09:36:45.726Z,97992.56
2022-11-20T09:39:13.162Z,97997.77
2022-11-20T09:41:40.555Z,97997.63
2022-11-20T09:44:07.966Z,97998.93
2022-11-20T09:46:35.331Z,97997.17
2022-11-20T09:49:02.699Z,97996.55
2022-11-20T09:51:30.265Z,97997.84
2022-11-20T09:53:57.661Z,97994.67
2022-11-20T09:56:25.036Z,97992.91
2022-11-20T09:58:52.428Z,97984.65
2022-11-20T10:01:19.858Z,97979.45
2022-11-20T10:03:47.253Z,97976.13
2022-11-20T10:06:14.639Z,97974.94
2022-11-20T10:08:42.013Z,97975.91
2022-11-20T10:11:09.395Z,97975.00
2022-11-20T10:13:36.949Z,97969.54
2022-11-20T10:16:04.339Z,97966.94
2022-11-20T10:18:31.704Z,97965.91
2022-11-20T10:20:59.215Z,97959.39
2022-11-20T10:23:26.592Z,97959.73
2022-11-20T10:25:53.967Z,97953.51
2022-11-20T10:28:21.305Z,97957.76
2022-11-20T10:30:48.750Z,97955.09
2022-11-20T10:33:16.144Z,97957.12
2022-11-20T10:35:43.569Z,97956.70
2022-11-20T10:38:10.956Z,97952.65
2022-11-20T10:40:38.308Z,97948.21
2022-11-20T10:43:05.724Z,97943.20
2022-11-20T10:45:33.137Z,97940.33
2022-11-20T10:48:00.493Z,97938.80
2022-11-20T10:50:28.253Z,97935.84
2022-11-20T10:52:55.623Z,97931.96
2022-11-20T10:55:23.075Z,97928.88
2022-11-20T10:57:50.535Z,97924.90
2022-11-20T11:00:18.125Z,97924.11
2022-11-20T11:02:45.597Z,97925.14
2022-11-20T11:05:14.606Z,97920.10
2022-11-20T11:07:42.342Z,97916.99
2022-11-20T11:10:09.780Z,97914.04
2022-11-20T11:12:37.356Z,97914.81
2022-11-20T11:15:05.093Z,97913.29
2022-11-20T11:17:32.523Z,97910.83
2022-11-20T11:19:59.926Z,97906.02
2022-11-20T11:22:27.334Z,97903.06
2022-11-20T11:24:54.694Z,97905.35
2022-11-20T11:27:22.086Z,97904.83
2022-11-20T11:29:49.433Z,97908.21
2022-11-20T11:32:16.845Z,97910.45
2022-11-20T11:34:44.274Z,97908.70
2022-11-20T11:37:11.680Z,97913.17
2022-11-20T11:39:39.097Z,97910.06
2022-11-20T11:42:06.444Z,97904.86
2022-11-20T11:44:33.801Z,97901.34
2022-11-20T11:47:01.203Z,97907.38
2022-11-20T11:49:28.619Z,97907.77
2022-11-20T11:51:56.042Z,97908.96
2022-11-20T11:54:23.424Z,97909.63
2022-11-20T11:56:50.776Z,97903.86
2022-11-20T11:59:19.358Z,97895.20
2022-11-20T12:01:47.640Z,97887.46
2022-11-20T12:04:17.312Z,97880.70
2022-11-20T12:06:44.647Z,97878.66
2022-11-20T12:09:12.049Z,97873.37
2022-11-20T12:11:39.416Z,97870.27
2022-11-20T12:14:06.880Z,97874.25
2022-11-20T12:16:34.274Z,97872.41
2022-11-20T12:19:01.725Z,97873.30
2022-11-20T12:21:29.099Z,97874.30
2022-11-20T12:23:56.582Z,97867.61
2022-11-20T12:26:24.054Z,97862.65
2022-11-20T12:28:51.534Z,97865.42
2022-11-20T12:31:18.899Z,97862.02
2022-11-20T12:33:46.297Z,97862.45
2022-11-20T12:36:13.733Z,97860.23
2022-11-20T12:38:41.096Z,97851.45
2022-11-20T12:41:08.583Z,97845.69
2022-11-20T12:43:35.957Z,97840.38
2022-11-20T12:46:03.472Z,97831.86
2022-11-20T12:48:30.871Z,97828.98
2022-11-20T12:51:14.631Z,97824.28
2022-11-20T12:53:43.114Z,97820.22
2022-11-20T12:56:10.569Z,97815.59
2022-11-20T12:58:37.969Z,97813.73
2022-11-20T13:01:05.473Z,97807.47
2022-11-20T13:03:32.881Z,97805.86
2022-11-20T13:06:00.293Z,97804.54
2022-11-20T13:08:27.717Z,97801.20
2022-11-20T13:10:55.181Z,97796.61
2022-11-20T13:13:22.625Z,97799.77
2022-11-20T13:15:50.026Z,97804.50
2022-11-20T13:18:17.419Z,97802.96
2022-11-20T13:20:44.875Z,97799.34
2022-11-20T13:23:12.304Z,97797.39
2022-11-20T13:25:39.953Z,97799.17
2022-11-20T13:28:07.355Z,97802.11
2022-11-20T13:30:34.773Z,97802.77
2022-11-20T13:33:02.132Z,97802.21
2022-11-20T13:35:29.615Z,97802.23
2022-11-20T13:37:57.156Z,97802.17
2022-11-20T13:40:24.545Z,97800.84
2022-11-20T13:42:51.975Z,97797.88
2022-11-20T13:45:19.405Z,97792.36
2022-11-20T13:47:46.758Z,97784.02
2022-11-20T13:50:14.238Z,97783.98
2022-11-20T13:52:41.613Z,97777.30
2022-11-20T13:55:09.076Z,97781.54
2022-11-20T13:57:36.621Z,97774.84
2022-11-20T14:00:04.101Z,97774.67
2022-11-20T14:02:31.558Z,97775.95
2022-11-20T14:04:58.972Z,97774.58
2022-11-20T14:07:26.426Z,97771.13
2022-11-20T14:09:53.933Z,97772.79
2022-11-20T14:12:21.368Z,97775.32
2022-11-20T14:14:48.746Z,97770.48
2022-11-20T14:17:16.162Z,97771.94
2022-11-20T14:19:43.748Z,97764.73
2022-11-20T14:22:11.126Z,97767.30
2022-11-20T14:24:38.694Z,97762.67
2022-11-20T14:27:06.054Z,97761.66
2022-11-20T14:29:33.472Z,97762.02
2022-11-20T14:32:00.867Z,97759.21
2022-11-20T14:34:28.210Z,97761.43
2022-11-20T14:36:55.611Z,97760.88
2022-11-20T14:39:23.047Z,97759.18
2022-11-20T14:41:50.416Z,97758.07
2022-11-20T14:44:17.810Z,97762.45
2022-11-20T14:46:45.230Z,97756.31
2022-11-20T14:49:12.673Z,97756.59
2022-11-20T14:51:40.025Z,97751.41
2022-11-20T14:54:07.573Z,97754.28
2022-11-20T14:56:34.946Z,97757.17
2022-11-20T14:59:02.392Z,97758.36
2022-11-20T15:01:29.788Z,97756.72
2022-11-20T15:03:57.178Z,97757.17
2022-11-20T15:06:24.636Z,97750.75
2022-11-20T15:08:52.015Z,97748.63
2022-11-20T15:11:19.390Z,97735.86
2022-11-20T15:13:46.769Z,97731.91
2022-11-20T15:16:14.174Z,97733.80
2022-11-20T15:18:41.565Z,97731.45
2022-11-20T15:21:08.964Z,97725.63
2022-11-20T15:23:36.330Z,97726.66
2022-11-20T15:26:03.740Z,97724.52
2022-11-20T15:28:31.190Z,97727.45
2022-11-20T15:30:58.546Z,97723.76
2022-11-20T15:33:25.998Z,97723.89
2022-11-20T15:35:53.478Z,97723.11
2022-11-20T15:38:20.967Z,97719.89
2022-11-20T15:40:48.320Z,97719.52
2022-11-20T15:43:15.817Z,97717.33
2022-11-20T15:45:43.169Z,97719.71
2022-11-20T15:48:10.558Z,97724.96
2022-11-20T15:50:38.049Z,97726.88
2022-11-20T15:53:05.474Z,97725.70
2022-11-20T15:55:32.887Z,97730.95
2022-11-20T15:58:00.233Z,97731.08
2022-11-20T16:00:27.639Z,97732.94
2022-11-20T16:02:55.051Z,97730.52
2022-11-20T16:05:22.535Z,97727.68
2022-11-20T16:07:49.934Z,97723.45
2022-11-20T16:10:17.484Z,97724.36
2022-11-20T16:12:44.960Z,97720.61
2022-11-20T16:15:13.747Z,97719.30
2022-11-20T16:17:41.334Z,97718.45
2022-11-20T16:20:08.731Z,97717.29
2022-11-20T16:22:36.118Z,97713.46
2022-11-20T16:25:03.527Z,97718.02
2022-11-20T16:27:30.907Z,97719.66
2022-11-20T16:29:58.296Z,97725.40
2022-11-20T16:32:25.646Z,97729.27
2022-11-20T16:34:53.065Z,97722.42
2022-11-20T16:37:20.468Z,97717.83
2022-11-20T16:39:47.837Z,97719.92
2022-11-20T16:42:15.226Z,97719.56
2022-11-20T16:44:42.610Z,97723.46
2022-11-20T16:47:10.150Z,97721.79
2022-11-20T16:49:37.618Z,97725.20
2022-11-20T16:52:05.023Z,97722.88
2022-11-20T16:54:32.439Z,97714.65
2022-11-20T16:56:59.817Z,97719.13
2022-11-20T16:59:27.224Z,97724.23
2022-11-20T17:01:54.701Z,97723.55
2022-11-20T17:04:22.300Z,97720.55
2022-11-20T17:06:49.913Z,97713.38
2022-11-20T17:09:17.285Z,97713.48
2022-11-20T17:11:44.752Z,97714.64
2022-11-20T17:14:12.170Z,97715.39
2022-11-20T17:16:39.564Z,97718.16
2022-11-20T17:19:07.028Z,97721.20
2022-11-20T17:21:34.407Z,97725.16
2022-11-20T17:24:01.784Z,97718.71
2022-11-20T17:26:29.265Z,97711.55
2022-11-20T17:28:56.702Z,97703.56
2022-11-20T17:31:24.091Z,97705.81
2022-11-20T17:33:51.492Z,97707.38
2022-11-20T17:36:18.870Z,97705.48
2022-11-20T17:38:46.273Z,97704.64
2022-11-20T17:41:13.718Z,97701.52
2022-11-20T17:43:41.175Z,97696.30
2022-11-20T17:46:08.577Z,97694.48
2022-11-20T17:48:35.993Z,97693.33
2022-11-20T17:51:03.441Z,97688.15
2022-11-20T17:53:30.980Z,97685.21
2022-11-20T17:55:58.359Z,97685.02
2022-11-20T17:58:25.836Z,97679.84
2022-11-20T18:00:53.243Z,97677.10
2022-11-20T18:03:20.622Z,97674.69
2022-11-20T18:05:48.009Z,97674.50
2022-11-20T18:08:15.496Z,97679.54
2022-11-20T18:10:42.832Z,97674.70
2022-11-20T18:13:10.228Z,97683.63
2022-11-20T18:15:37.656Z,97684.56
2022-11-20T18:18:05.046Z,97683.41
2022-11-20T18:20:38.199Z,97679.01
2022-11-20T18:23:07.087Z,97671.23
2022-11-20T18:25:34.523Z,97662.50
2022-11-20T18:28:02.005Z,97662.95
2022-11-20T18:30:29.359Z,97666.80
2022-11-20T18:32:56.927Z,97672.85
2022-11-20T18:35:24.279Z,97675.26
2022-11-20T18:37:51.801Z,97671.55
2022-11-20T18:40:19.151Z,97672.17
2022-11-20T18:42:46.501Z,97674.87
2022-11-20T18:45:16.441Z,97674.27
2022-11-20T18:47:43.819Z,97669.65
2022-11-20T18:50:11.193Z,97668.77
2022-11-20T18:52:38.623Z,97670.14
2022-11-20T18:55:06.072Z,97678.47
2022-11-20T18:57:33.456Z,97672.85
2022-11-20T19:00:06.491Z,97673.59
2022-11-20T19:02:40.988Z,97669.10
2022-11-20T19:05:09.415Z,97668.89
2022-11-20T19:07:36.823Z,97670.10
2022-11-20T19:10:04.632Z,97673.41
2022-11-20T19:12:32.223Z,97673.19
2022-11-20T19:14:59.612Z,97669.02
2022-11-20T19:17:26.987Z,97663.81
2022-11-20T19:19:54.617Z,97663.91
2022-11-20T19:22:21.990Z,97664.41
2022-11-20T19:24:49.457Z,97668.84
2022-11-20T19:27:16.868Z,97666.11
2022-11-20T19:29:44.207Z,97668.27
2022-11-20T19:32:11.635Z,97669.66
2022-11-20T19:34:39.093Z,97666.73
2022-11-20T19:37:06.452Z,97671.15
2022-11-20T19:39:33.856Z,97669.59
2022-11-20T19:42:01.244Z,97670.48
2022-11-20T19:44:28.717Z,97668.70
2022-11-20T19:46:56.125Z,97669.38
2022-11-20T19:49:23.687Z,97671.03
2022-11-20T19:51:51.261Z,97671.24
2022-11-20T19:54:18.671Z,97673.92
2022-11-20T19:56:46.058Z,97671.94
2022-11-20T19:59:13.463Z,97670.45
2022-11-20T20:01:40.984Z,97666.66
2022-11-20T20:04:08.381Z,97663.30
2022-11-20T20:06:35.764Z,97663.83
2022-11-20T20:09:03.138Z,97660.15
2022-11-20T20:11:30.557Z,97661.85
2022-11-20T20:13:58.000Z,97653.90
2022-11-20T20:16:25.446Z,97654.95
2022-11-20T20:18:52.853Z,97659.34
2022-11-20T20:21:20.415Z,97658.39
2022-11-20T20:23:47.806Z,97661.36
2022-11-20T20:26:15.243Z,97661.92
2022-11-20T20:28:42.664Z,97655.00
2022-11-20T20:31:10.086Z,97654.33
2022-11-20T20:33:37.900Z,97656.63
2022-11-20T20:36:05.741Z,97658.73
2022-11-20T20:38:33.117Z,97660.37
2022-11-20T20:41:00.557Z,97660.56
2022-11-20T20:43:27.921Z,97656.42
2022-11-20T20:45:55.295Z,97657.16
2022-11-20T20:48:22.625Z,97657.60
2022-11-20T20:50:50.077Z,97658.97
2022-11-20T20:53:17.501Z,97657.72
2022-11-20T20:55:44.850Z,97654.60
2022-11-20T20:58:12.215Z,97648.11
2022-11-20T21:00:39.710Z,97654.33
2022-11-20T21:03:07.105Z,97656.23
2022-11-20T21:05:34.478Z,97654.41
2022-11-20T21:08:01.913Z,97653.52
2022-11-20T21:10:29.343Z,97653.77
2022-11-20T21:12:56.875Z,97654.46
2022-11-20T21:15:24.342Z,97658.70
2022-11-20T21:17:51.702Z,97660.63
2022-11-20T21:20:19.073Z,97666.21
2022-11-20T21:22:46.428Z,97675.02
2022-11-20T21:25:13.991Z,97674.02
2022-11-20T21:27:41.372Z,97670.39
2022-11-20T21:30:08.788Z,97666.19
2022-11-20T21:32:36.259Z,97664.20
2022-11-20T21:35:03.733Z,97661.04
2022-11-20T21:37:31.125Z,97662.70
2022-11-20T21:39:58.497Z,97657.27
2022-11-20T21:42:25.892Z,97661.13
2022-11-20T21:44:53.352Z,97658.54
2022-11-20T21:47:22.194Z,97657.95
2022-11-20T21:49:49.565Z,97656.33
2022-11-20T21:52:16.987Z,97657.91
2022-11-20T21:54:44.367Z,97662.67
2022-11-20T21:57:11.900Z,97661.83
2022-11-20T21:59:39.249Z,97662.71
2022-11-20T22:02:06.769Z,97661.02
2022-11-20T22:04:34.233Z,97661.95
2022-11-20T22:07:01.721Z,97657.50
2022-11-20T22:09:29.148Z,97659.29
2022-11-20T22:11:56.507Z,97657.64
2022-11-20T22:14:24.596Z,97656.81
2022-11-20T22:16:52.419Z,97666.64
2022-11-20T22:19:19.814Z,97668.86
2022-11-20T22:21:47.167Z,97672.91
2022-11-20T22:24:14.588Z,97673.14
2022-11-20T22:26:42.009Z,97678.34
2022-11-20T22:29:09.422Z,97679.64
2022-11-20T22:31:36.922Z,97681.22
2022-11-20T22:34:04.472Z,97685.22
2022-11-20T22:36:31.829Z,97683.55
2022-11-20T22:38:59.229Z,97680.57
2022-11-20T22:41:26.729Z,97681.08
2022-11-20T22:43:54.168Z,97687.03
2022-11-20T22:46:21.498Z,97689.58
2022-11-20T22:48:48.852Z,97689.80
2022-11-20T22:51:16.249Z,97688.82
2022-11-20T22:53:43.659Z,97685.50
2022-11-20T22:56:11.115Z,97688.02
2022-11-20T22:58:38.480Z,97696.25
2022-11-20T23:01:05.890Z,97699.95
2022-11-20T23:03:33.298Z,97705.23
2022-11-20T23:06:00.845Z,97708.67
2022-11-20T23:08:28.276Z,97709.11
2022-11-20T23:10:55.963Z,97706.89
2022-11-20T23:13:23.338Z,97704.73
2022-11-20T23:15:50.703Z,97698.52
2022-11-20T23:18:18.147Z,97692.66
2022-11-20T23:20:45.534Z,97691.80
2022-11-20T23:23:12.896Z,97693.75
2022-11-20T23:25:40.291Z,97696.24
2022-11-20T23:28:07.685Z,97691.55
2022-11-20T23:30:35.030Z,97688.95
2022-11-20T23:33:02.426Z,97683.14
2022-11-20T23:35:29.844Z,97678.61
2022-11-20T23:37:57.249Z,97675.10
2022-11-20T23:40:24.677Z,97678.65
2022-11-20T23:42:52.037Z,97681.36
2022-11-20T23:45:19.451Z,97679.78
2022-11-20T23:47:46.971Z,97680.08
2022-11-20T23:50:14.378Z,97672.16
2022-11-20T23:52:41.772Z,97670.89
2022-11-20T23:55:09.218Z,97675.09
2022-11-20T23:57:36.596Z,97676.39
